createdAt,value
2022-09-15T00:00:57.183Z,99932.21
2022-09-15T00:03:49.231Z,99936.75
2022-09-15T00:06:38.180Z,99934.33
2022-09-15T00:09:26.730Z,99927.91
2022-09-15T00:12:16.509Z,99934.33
2022-09-15T00:15:07.284Z,99935.13
2022-09-15T00:17:56.067Z,99932.70
2022-09-15T00:20:46.050Z,99934.82
2022-09-15T00:23:34.194Z,99932.37
2022-09-15T00:26:25.406Z,99930.75
2022-09-15T00:29:13.750Z,99929.39
2022-09-15T00:32:02.915Z,99926.14
2022-09-15T00:34:53.015Z,99927.42
2022-09-15T00:37:41.858Z,99925.23
2022-09-15T00:40:30.874Z,99923.05
2022-09-15T00:43:22.032Z,99913.08
2022-09-15T00:46:11.651Z,99925.09
2022-09-15T00:49:04.814Z,99914.86
2022-09-15T00:51:59.119Z,99919.65
2022-09-15T00:54:58.091Z,99911.30
2022-09-15T00:57:49.468Z,99917.95
2022-09-15T01:00:41.734Z,99914.70
2022-09-15T01:03:33.016Z,99908.55
2022-09-15T01:06:27.311Z,99909.83
2022-09-15T01:09:19.224Z,99914.63
2022-09-15T01:12:08.083Z,99911.63
2022-09-15T01:14:59.854Z,99909.19
2022-09-15T01:18:04.017Z,99905.94
2022-09-15T01:21:10.598Z,99904.51
2022-09-15T01:24:29.871Z,99897.78
2022-09-15T01:27:42.541Z,99906.88
2022-09-15T01:30:35.388Z,99902.80
2022-09-15T01:33:35.865Z,99900.61
2022-09-15T01:36:29.725Z,99892.83
2022-09-15T01:39:21.366Z,99895.52
2022-09-15T01:42:13.825Z,99890.95
2022-09-15T01:45:07.481Z,99885.85
2022-09-15T01:47:57.797Z,99885.02
2022-09-15T01:50:52.094Z,99888.76
2022-09-15T01:53:41.601Z,99879.09
2022-09-15T01:56:31.713Z,99880.98
2022-09-15T01:59:20.466Z,99874.00
2022-09-15T02:02:14.327Z,99880.64
2022-09-15T02:05:06.576Z,99881.69
2022-09-15T02:08:04.690Z,99875.77
2022-09-15T02:11:01.292Z,99871.72
2022-09-15T02:14:00.108Z,99864.97
2022-09-15T02:16:52.753Z,99873.27
2022-09-15T02:19:45.551Z,99867.34
2022-09-15T02:22:37.389Z,99869.19
2022-09-15T02:25:38.651Z,99860.58
2022-09-15T02:28:33.092Z,99850.36
2022-09-15T02:31:24.983Z,99848.16
2022-09-15T02:34:18.493Z,99849.96
2022-09-15T02:37:09.442Z,99851.72
2022-09-15T02:40:00.366Z,99856.99
2022-09-15T02:42:56.289Z,99849.79
2022-09-15T02:45:45.813Z,99852.69
2022-09-15T02:48:35.644Z,99859.09
2022-09-15T02:51:24.294Z,99852.95
2022-09-15T02:54:13.034Z,99862.26
2022-09-15T02:57:02.608Z,99854.23
2022-09-15T03:00:09.589Z,99857.38
2022-09-15T03:02:58.348Z,99861.11
2022-09-15T03:05:46.690Z,99859.48
2022-09-15T03:08:35.857Z,99867.78
2022-09-15T03:11:26.644Z,99865.33
2022-09-15T03:14:15.616Z,99859.40
2022-09-15T03:17:05.601Z,99862.65
2022-09-15T03:19:53.740Z,99869.88
2022-09-15T03:22:42.085Z,99862.65
2022-09-15T03:25:32.481Z,99851.37
2022-09-15T03:28:21.444Z,99857.55
2022-09-15T03:31:11.286Z,99854.30
2022-09-15T03:34:00.793Z,99844.08
2022-09-15T03:36:49.550Z,99849.43
2022-09-15T03:39:38.507Z,99837.09
2022-09-15T03:42:27.059Z,99852.33
2022-09-15T03:45:16.837Z,99860.84
2022-09-15T03:48:06.002Z,99852.48
2022-09-15T03:50:54.963Z,99848.19
2022-09-15T03:53:43.921Z,99847.84
2022-09-15T03:56:33.269Z,99856.13
2022-09-15T03:59:22.660Z,99841.34
2022-09-15T04:02:11.667Z,99846.70
2022-09-15T04:05:00.198Z,99849.37
2022-09-15T04:07:50.152Z,99851.00
2022-09-15T04:10:40.656Z,99846.47
2022-09-15T04:13:29.302Z,99848.58
2022-09-15T04:16:20.175Z,99844.02
2022-09-15T04:19:09.064Z,99852.05
2022-09-15T04:21:57.602Z,99838.09
2022-09-15T04:24:47.525Z,99852.05
2022-09-15T04:27:37.584Z,99844.02
2022-09-15T04:30:25.932Z,99841.34
2022-09-15T04:33:14.684Z,99841.92
2022-09-15T04:36:09.014Z,99830.98
2022-09-15T04:38:58.338Z,99828.31
2022-09-15T04:41:47.503Z,99831.78
2022-09-15T04:44:36.874Z,99840.64
2022-09-15T04:47:27.062Z,99839.33
2022-09-15T04:50:15.917Z,99851.66
2022-09-15T04:53:04.160Z,99849.56
2022-09-15T04:55:53.536Z,99851.75
2022-09-15T04:58:43.848Z,99850.22
2022-09-15T05:01:34.794Z,99843.34
2022-09-15T05:04:23.685Z,99850.41
2022-09-15T05:07:12.445Z,99853.17
2022-09-15T05:10:01.167Z,99855.23
2022-09-15T05:12:50.363Z,99853.44
2022-09-15T05:15:39.935Z,99853.03
2022-09-15T05:18:29.509Z,99851.84
2022-09-15T05:21:20.516Z,99848.75
2022-09-15T05:24:10.498Z,99846.23
2022-09-15T05:26:58.848Z,99850.72
2022-09-15T05:29:49.247Z,99857.05
2022-09-15T05:32:37.586Z,99846.22
2022-09-15T05:35:25.959Z,99850.98
2022-09-15T05:38:15.255Z,99858.41
2022-09-15T05:41:06.886Z,99861.28
2022-09-15T05:43:58.505Z,99863.09
2022-09-15T05:46:47.596Z,99861.64
2022-09-15T05:49:36.464Z,99872.84
2022-09-15T05:52:25.014Z,99867.62
2022-09-15T05:55:13.773Z,99869.07
2022-09-15T05:58:04.574Z,99870.55
2022-09-15T06:00:53.765Z,99872.54
2022-09-15T06:03:42.971Z,99862.42
2022-09-15T06:06:32.892Z,99856.87
2022-09-15T06:09:21.028Z,99853.98
2022-09-15T06:12:09.990Z,99843.63
2022-09-15T06:14:59.360Z,99841.55
2022-09-15T06:17:48.523Z,99839.17
2022-09-15T06:20:37.893Z,99830.90
2022-09-15T06:23:27.059Z,99828.80
2022-09-15T06:26:18.070Z,99833.13
2022-09-15T06:29:08.262Z,99825.37
2022-09-15T06:32:02.189Z,99819.73
2022-09-15T06:34:50.478Z,99823.30
2022-09-15T06:37:40.283Z,99834.34
2022-09-15T06:40:30.240Z,99828.95
2022-09-15T06:43:20.429Z,99825.46
2022-09-15T06:46:10.067Z,99822.75
2022-09-15T06:48:58.960Z,99818.67
2022-09-15T06:51:48.092Z,99816.50
2022-09-15T06:54:36.887Z,99814.83
2022-09-15T06:57:25.435Z,99818.83
2022-09-15T07:00:15.855Z,99813.36
2022-09-15T07:03:04.744Z,99821.62
2022-09-15T07:05:54.165Z,99808.58
2022-09-15T07:08:42.781Z,99814.41
2022-09-15T07:11:32.282Z,99815.64
2022-09-15T07:14:20.829Z,99817.95
2022-09-15T07:17:10.205Z,99816.42
2022-09-15T07:20:00.169Z,99825.76
2022-09-15T07:22:48.935Z,99832.33
2022-09-15T07:25:37.286Z,99828.88
2022-09-15T07:28:25.429Z,99836.02
2022-09-15T07:31:17.399Z,99851.26
2022-09-15T07:34:07.477Z,99856.52
2022-09-15T07:36:56.204Z,99847.91
2022-09-15T07:39:44.978Z,99845.77
2022-09-15T07:42:36.032Z,99845.27
2022-09-15T07:45:24.556Z,99847.77
2022-09-15T07:48:13.439Z,99857.27
2022-09-15T07:51:02.234Z,99851.59
2022-09-15T07:53:51.983Z,99862.17
2022-09-15T07:56:40.764Z,99868.14
2022-09-15T07:59:28.901Z,99861.64
2022-09-15T08:02:19.075Z,99856.74
2022-09-15T08:05:09.926Z,99863.16
2022-09-15T08:07:59.268Z,99856.30
2022-09-15T08:10:47.818Z,99864.36
2022-09-15T08:13:37.615Z,99859.38
2022-09-15T08:16:27.822Z,99865.78
2022-09-15T08:19:16.948Z,99855.83
2022-09-15T08:22:07.140Z,99861.09
2022-09-15T08:24:55.894Z,99855.78
2022-09-15T08:27:44.870Z,99860.20
2022-09-15T08:30:33.814Z,99847.79
2022-09-15T08:33:21.890Z,99853.33
2022-09-15T08:36:11.529Z,99847.12
2022-09-15T08:39:00.282Z,99838.98
2022-09-15T08:41:51.462Z,99834.70
2022-09-15T08:44:49.264Z,99839.08
2022-09-15T08:47:41.443Z,99840.98
2022-09-15T08:50:30.940Z,99845.16
2022-09-15T08:53:22.630Z,99841.93
2022-09-15T08:56:16.608Z,99840.60
2022-09-15T08:59:05.330Z,99844.78
2022-09-15T09:02:17.303Z,99828.05
2022-09-15T09:05:29.051Z,99816.43
2022-09-15T09:08:41.493Z,99819.27
2022-09-15T09:11:43.518Z,99820.97
2022-09-15T09:14:42.832Z,99818.04
2022-09-15T09:17:48.063Z,99809.92
2022-09-15T09:20:58.171Z,99808.88
2022-09-15T09:23:50.683Z,99802.45
2022-09-15T09:26:39.917Z,99807.70
2022-09-15T09:29:33.129Z,99804.66
2022-09-15T09:32:26.203Z,99804.04
2022-09-15T09:35:21.062Z,99797.81
2022-09-15T09:38:10.823Z,99798.31
2022-09-15T09:41:02.265Z,99794.48
2022-09-15T09:43:54.729Z,99784.83
2022-09-15T09:46:43.933Z,99779.35
2022-09-15T09:49:35.829Z,99775.02
2022-09-15T09:52:36.176Z,99780.97
2022-09-15T09:55:27.610Z,99785.62
2022-09-15T09:58:20.847Z,99789.03
2022-09-15T10:01:13.516Z,99773.25
2022-09-15T10:04:19.309Z,99766.50
2022-09-15T10:07:09.038Z,99753.79
2022-09-15T10:09:59.803Z,99775.17
2022-09-15T10:12:50.392Z,99752.98
2022-09-15T10:15:41.403Z,99761.75
2022-09-15T10:18:33.678Z,99764.24
2022-09-15T10:21:24.722Z,99753.47
2022-09-15T10:24:33.942Z,99748.98
2022-09-15T10:27:29.596Z,99745.37
2022-09-15T10:30:21.559Z,99742.11
2022-09-15T10:33:23.927Z,99734.53
2022-09-15T10:36:17.139Z,99727.36
2022-09-15T10:39:18.062Z,99729.58
2022-09-15T10:42:16.807Z,99729.03
2022-09-15T10:45:32.631Z,99724.97
2022-09-15T10:48:38.803Z,99724.52
2022-09-15T10:51:40.864Z,99713.34
2022-09-15T10:55:00.495Z,99707.58
2022-09-15T10:58:02.623Z,99716.34
2022-09-15T11:01:02.273Z,99716.41
2022-09-15T11:04:17.814Z,99709.84
2022-09-15T11:07:16.148Z,99703.98
2022-09-15T11:10:16.518Z,99694.23
2022-09-15T11:13:12.489Z,99696.70
2022-09-15T11:16:13.250Z,99696.41
2022-09-15T11:19:17.503Z,99700.81
2022-09-15T11:22:13.211Z,99687.44
2022-09-15T11:25:05.048Z,99681.95
2022-09-15T11:27:58.924Z,99690.63
2022-09-15T11:30:56.745Z,99688.39
2022-09-15T11:33:52.060Z,99673.58
2022-09-15T11:36:47.279Z,99675.66
2022-09-15T11:39:41.526Z,99673.42
2022-09-15T11:42:39.569Z,99672.70
2022-09-15T11:45:35.458Z,99663.72
2022-09-15T11:48:31.839Z,99668.78
2022-09-15T11:51:23.355Z,99666.77
2022-09-15T11:54:19.782Z,99669.43
2022-09-15T11:57:17.549Z,99669.00
2022-09-15T12:00:13.235Z,99666.63
2022-09-15T12:03:26.598Z,99679.22
2022-09-15T12:06:19.169Z,99665.09
2022-09-15T12:09:12.231Z,99668.27
2022-09-15T12:12:07.202Z,99673.42
2022-09-15T12:14:58.091Z,99673.86
2022-09-15T12:17:48.151Z,99671.89
2022-09-15T12:20:43.437Z,99666.77
2022-09-15T12:23:34.306Z,99662.48
2022-09-15T12:26:25.571Z,99656.25
2022-09-15T12:29:41.134Z,99666.60
2022-09-15T12:32:32.656Z,99667.08
2022-09-15T12:35:33.568Z,99671.86
2022-09-15T12:38:24.368Z,99659.77
2022-09-15T12:41:13.739Z,99666.56
2022-09-15T12:44:14.976Z,99667.45
2022-09-15T12:47:07.017Z,99652.07
2022-09-15T12:50:00.496Z,99654.47
2022-09-15T12:52:52.973Z,99640.72
2022-09-15T12:55:51.883Z,99647.80
2022-09-15T12:58:45.082Z,99642.73
2022-09-15T13:01:49.167Z,99639.98
2022-09-15T13:04:54.651Z,99641.14
2022-09-15T13:08:00.196Z,99647.08
2022-09-15T13:11:03.405Z,99632.96
2022-09-15T13:13:57.941Z,99631.80
2022-09-15T13:16:55.118Z,99637.34
2022-09-15T13:19:47.197Z,99641.77
2022-09-15T13:22:39.736Z,99637.84
2022-09-15T13:25:31.182Z,99642.19
2022-09-15T13:28:20.559Z,99648.86
2022-09-15T13:31:40.916Z,99645.67
2022-09-15T13:35:08.484Z,99649.52
2022-09-15T13:38:27.642Z,99654.67
2022-09-15T13:41:49.028Z,99655.88
2022-09-15T13:45:22.310Z,99651.18
2022-09-15T13:48:37.727Z,99651.53
2022-09-15T13:51:31.193Z,99646.03
2022-09-15T13:54:20.897Z,99655.52
2022-09-15T13:57:10.141Z,99651.23
2022-09-15T13:59:58.488Z,99648.47
2022-09-15T14:02:50.838Z,99648.86
2022-09-15T14:05:40.297Z,99653.93
2022-09-15T14:08:33.101Z,99656.69
2022-09-15T14:11:28.420Z,99652.34
2022-09-15T14:14:38.936Z,99655.83
2022-09-15T14:17:29.319Z,99650.67
2022-09-15T14:20:27.698Z,99655.75
2022-09-15T14:23:18.504Z,99656.06
2022-09-15T14:26:12.582Z,99661.48
2022-09-15T14:29:04.046Z,99670.83
2022-09-15T14:31:52.740Z,99667.59
2022-09-15T14:34:42.005Z,99678.89
2022-09-15T14:37:32.316Z,99670.13
2022-09-15T14:40:25.494Z,99681.43
2022-09-15T14:43:28.074Z,99688.04
2022-09-15T14:46:18.497Z,99691.08
2022-09-15T14:49:14.508Z,99675.17
2022-09-15T14:52:04.711Z,99683.59
2022-09-15T14:54:59.457Z,99682.30
2022-09-15T14:57:55.531Z,99672.40
2022-09-15T15:00:55.239Z,99668.78
2022-09-15T15:03:49.816Z,99671.81
2022-09-15T15:06:45.189Z,99676.35
2022-09-15T15:09:38.343Z,99664.34
2022-09-15T15:12:30.666Z,99668.09
2022-09-15T15:15:21.549Z,99665.15
2022-09-15T15:18:38.731Z,99666.59
2022-09-15T15:21:40.101Z,99667.92
2022-09-15T15:24:29.757Z,99659.08
2022-09-15T15:27:43.504Z,99656.17
2022-09-15T15:30:44.131Z,99659.90
2022-09-15T15:33:33.299Z,99659.28
2022-09-15T15:36:24.076Z,99657.93
2022-09-15T15:39:24.721Z,99657.76
2022-09-15T15:42:16.766Z,99669.00
2022-09-15T15:45:20.932Z,99671.11
2022-09-15T15:48:11.277Z,99666.97
2022-09-15T15:51:00.106Z,99669.08
2022-09-15T15:53:50.439Z,99652.77
2022-09-15T15:56:40.204Z,99653.73
2022-09-15T15:59:28.960Z,99658.98
2022-09-15T16:02:17.983Z,99658.02
2022-09-15T16:05:09.552Z,99651.89
2022-09-15T16:08:02.762Z,99656.36
2022-09-15T16:10:53.635Z,99652.19
2022-09-15T16:13:42.846Z,99655.05
2022-09-15T16:16:32.628Z,99638.77
2022-09-15T16:19:21.512Z,99654.16
2022-09-15T16:22:15.526Z,99650.06
2022-09-15T16:25:13.300Z,99646.33
2022-09-15T16:28:04.101Z,99659.80
2022-09-15T16:30:52.520Z,99660.36
2022-09-15T16:33:43.831Z,99655.81
2022-09-15T16:36:35.747Z,99652.84
2022-09-15T16:39:23.078Z,99652.63
2022-09-15T16:42:12.447Z,99660.12
2022-09-15T16:45:02.635Z,99653.63
2022-09-15T16:47:51.390Z,99651.45
2022-09-15T16:50:50.533Z,99652.00
2022-09-15T16:53:51.639Z,99655.31
2022-09-15T16:56:40.802Z,99659.73
2022-09-15T16:59:29.352Z,99655.97
2022-09-15T17:02:18.602Z,99647.52
2022-09-15T17:05:28.370Z,99649.98
2022-09-15T17:08:19.587Z,99641.86
2022-09-15T17:11:16.429Z,99638.09
2022-09-15T17:14:05.896Z,99626.91
2022-09-15T17:16:54.859Z,99641.57
2022-09-15T17:19:43.850Z,99639.39
2022-09-15T17:22:32.166Z,99643.47
2022-09-15T17:25:37.405Z,99637.75
2022-09-15T17:28:28.414Z,99638.27
2022-09-15T17:31:19.180Z,99637.98
2022-09-15T17:34:13.139Z,99637.41
2022-09-15T17:37:01.337Z,99641.46
2022-09-15T17:39:56.856Z,99652.58
2022-09-15T17:42:48.679Z,99651.18
2022-09-15T17:45:39.276Z,99653.64
2022-09-15T17:48:28.235Z,99657.69
2022-09-15T17:51:17.889Z,99647.75
2022-09-15T17:54:08.817Z,99641.70
2022-09-15T17:56:57.782Z,99648.14
2022-09-15T17:59:46.536Z,99652.53
2022-09-15T18:02:36.072Z,99653.81
2022-09-15T18:05:27.389Z,99645.00
2022-09-15T18:08:16.691Z,99657.56
2022-09-15T18:11:07.089Z,99652.61
2022-09-15T18:13:58.504Z,99642.70
2022-09-15T18:16:48.503Z,99645.92
2022-09-15T18:19:37.857Z,99645.78
2022-09-15T18:22:26.821Z,99647.88
2022-09-15T18:25:23.133Z,99655.92
2022-09-15T18:28:12.318Z,99652.56
2022-09-15T18:31:00.892Z,99653.55
2022-09-15T18:33:50.034Z,99653.72
2022-09-15T18:36:39.949Z,99658.98
2022-09-15T18:39:29.183Z,99659.97
2022-09-15T18:42:18.142Z,99655.47
2022-09-15T18:45:10.214Z,99655.64
2022-09-15T18:47:59.338Z,99652.30
2022-09-15T18:50:47.482Z,99647.80
2022-09-15T18:53:38.288Z,99653.91
2022-09-15T18:56:26.837Z,99649.91
2022-09-15T18:59:17.847Z,99623.28
2022-09-15T19:02:11.433Z,99633.40
2022-09-15T19:04:58.838Z,99630.50
2022-09-15T19:07:47.590Z,99637.72
2022-09-15T19:10:37.921Z,99634.85
2022-09-15T19:13:28.276Z,99624.91
2022-09-15T19:16:20.175Z,99623.64
2022-09-15T19:19:11.839Z,99615.64
2022-09-15T19:22:02.224Z,99610.19
2022-09-15T19:24:51.387Z,99612.73
2022-09-15T19:27:41.786Z,99614.98
2022-09-15T19:30:31.414Z,99607.45
2022-09-15T19:33:20.522Z,99601.84
2022-09-15T19:36:27.304Z,99607.11
2022-09-15T19:39:17.080Z,99607.27
2022-09-15T19:42:06.888Z,99610.16
2022-09-15T19:44:55.410Z,99595.58
2022-09-15T19:47:43.908Z,99603.27
2022-09-15T19:50:33.123Z,99598.46
2022-09-15T19:53:22.904Z,99597.19
2022-09-15T19:56:16.704Z,99600.22
2022-09-15T19:59:06.911Z,99602.45
2022-09-15T20:01:55.372Z,99608.88
2022-09-15T20:04:44.889Z,99609.51
2022-09-15T20:07:33.445Z,99609.33
2022-09-15T20:10:22.604Z,99612.69
2022-09-15T20:13:11.772Z,99610.59
2022-09-15T20:16:03.101Z,99604.19
2022-09-15T20:18:53.368Z,99594.27
2022-09-15T20:21:51.492Z,99602.25
2022-09-15T20:24:41.160Z,99597.78
2022-09-15T20:27:30.724Z,99594.84
2022-09-15T20:30:19.658Z,99606.69
2022-09-15T20:33:08.148Z,99607.31
2022-09-15T20:36:03.520Z,99606.34
2022-09-15T20:38:53.843Z,99602.95
2022-09-15T20:41:44.719Z,99602.80
2022-09-15T20:44:33.474Z,99602.94
2022-09-15T20:47:21.818Z,99610.91
2022-09-15T20:50:11.320Z,99611.05
2022-09-15T20:52:59.535Z,99613.60
2022-09-15T20:55:51.978Z,99614.53
2022-09-15T20:58:41.557Z,99618.98
2022-09-15T21:01:34.095Z,99612.57
2022-09-15T21:04:22.752Z,99618.14
2022-09-15T21:07:11.708Z,99619.87
2022-09-15T21:10:00.263Z,99616.50
2022-09-15T21:12:49.221Z,99615.79
2022-09-15T21:15:38.181Z,99615.13
2022-09-15T21:18:28.780Z,99608.22
2022-09-15T21:21:21.126Z,99603.70
2022-09-15T21:24:10.545Z,99591.86
2022-09-15T21:27:17.368Z,99599.02
2022-09-15T21:30:09.591Z,99598.36
2022-09-15T21:32:57.747Z,99599.27
2022-09-15T21:35:48.755Z,99593.19
2022-09-15T21:38:38.492Z,99600.34
2022-09-15T21:41:29.249Z,99594.22
2022-09-15T21:44:18.092Z,99594.34
2022-09-15T21:47:07.461Z,99596.06
2022-09-15T21:49:56.835Z,99592.67
2022-09-15T21:52:45.179Z,99588.16
2022-09-15T21:55:37.016Z,99583.92
2022-09-15T21:58:26.518Z,99577.50
2022-09-15T22:01:18.167Z,99586.55
2022-09-15T22:04:08.413Z,99578.84
2022-09-15T22:06:57.350Z,99576.24
2022-09-15T22:09:46.935Z,99563.08
2022-09-15T22:12:36.091Z,99559.98
2022-09-15T22:15:25.661Z,99560.09
2022-09-15T22:18:14.421Z,99560.20
2022-09-15T22:21:08.923Z,99552.18
2022-09-15T22:23:58.891Z,99556.11
2022-09-15T22:26:47.445Z,99553.81
2022-09-15T22:29:36.382Z,99547.39
2022-09-15T22:32:25.940Z,99545.55
2022-09-15T22:35:14.122Z,99551.08
2022-09-15T22:38:03.488Z,99541.44
2022-09-15T22:40:52.042Z,99538.05
2022-09-15T22:43:42.433Z,99544.35
2022-09-15T22:46:31.800Z,99545.87
2022-09-15T22:49:20.766Z,99549.18
2022-09-15T22:52:09.110Z,99551.98
2022-09-15T22:54:57.659Z,99547.17
2022-09-15T22:57:48.238Z,99544.84
2022-09-15T23:00:39.311Z,99549.25
2022-09-15T23:03:28.024Z,99542.82
2022-09-15T23:06:18.002Z,99542.91
2022-09-15T23:09:10.852Z,99548.92
2022-09-15T23:11:59.203Z,99551.72
2022-09-15T23:14:48.572Z,99540.19
2022-09-15T23:17:38.558Z,99540.76
2022-09-15T23:20:27.311Z,99535.43
2022-09-15T23:23:17.295Z,99527.09
2022-09-15T23:26:09.356Z,99530.38
2022-09-15T23:28:58.290Z,99532.39
2022-09-15T23:31:47.920Z,99525.14
2022-09-15T23:34:36.649Z,99527.93
2022-09-15T23:37:25.781Z,99526.91
2022-09-15T23:40:14.815Z,99525.90
2022-09-15T23:43:03.499Z,99525.70
2022-09-15T23:45:53.281Z,99533.90
2022-09-15T23:48:42.445Z,99530.17
2022-09-15T23:51:31.436Z,99521.83
2022-09-15T23:54:19.749Z,99527.83
2022-09-15T23:57:10.556Z,99539.23
2022-09-15T23:59:59.103Z,99530.09
